Time;durP1;ratioP1;P1;durP2;ratioP2;P2;SDS_P1;SDS_P2;PMS_P1;PMS_P2;Temp;Humidity;BMP_temperature;BMP_pressure;BME280_temperature;BME280_humidity;BME280_pressure;Samples;Min_cycle;Max_cycle;Signal;HPM_P1;HPM_P2
2022/04/18 00:01:41;;;;;;;4.38;3.65;;;;;;;9.40;51.01;101922.56;4949238;29;20031;-75
2022/04/18 00:04:07;;;;;;;10.98;3.90;;;;;;;9.28;50.86;101928.47;4948085;29;20111;-75
2022/04/18 00:06:36;;;;;;;5.93;4.07;;;;;;;9.23;51.18;101922.59;4949586;29;20023;-75
2022/04/18 00:09:06;;;;;;;5.93;4.30;;;;;;;9.11;51.81;101923.19;4964486;28;20039;-74
2022/04/18 00:11:32;;;;;;;5.43;4.05;;;;;;;9.06;52.40;101922.59;4950903;29;20369;-74
2022/04/18 00:13:57;;;;;;;9.98;4.43;;;;;;;8.97;52.50;101917.78;4950716;28;20037;-74
2022/04/18 00:16:23;;;;;;;6.35;4.15;;;;;;;8.87;52.47;101912.16;4949354;28;20433;-74
2022/04/18 00:18:49;;;;;;;6.75;4.53;;;;;;;8.83;53.31;101925.53;4950510;29;20054;-74
2022/04/18 00:21:14;;;;;;;5.88;4.20;;;;;;;8.74;53.06;101922.41;4949770;29;20055;-74
2022/04/18 00:23:39;;;;;;;6.38;4.50;;;;;;;8.70;53.03;101920.00;4949492;29;20039;-74
2022/04/18 00:26:05;;;;;;;6.35;4.10;;;;;;;8.64;53.43;101920.31;4949948;28;20399;-74
2022/04/18 00:28:30;;;;;;;6.25;4.40;;;;;;;8.59;54.02;101917.91;4950164;29;20035;-73
2022/04/18 00:30:58;;;;;;;6.22;4.18;;;;;;;8.50;53.61;101913.13;4963939;28;20391;-74
2022/04/18 00:33:23;;;;;;;5.70;4.10;;;;;;;8.44;54.25;101914.25;4949341;29;20477;-74
2022/04/18 00:35:48;;;;;;;6.80;4.53;;;;;;;8.41;54.71;101924.06;4949685;28;20042;-74
2022/04/18 00:38:14;;;;;;;5.57;3.90;;;;;;;8.34;54.22;101922.63;4948805;28;20027;-74
2022/04/18 00:40:44;;;;;;;7.38;4.63;;;;;;;8.27;54.43;101921.19;4948759;28;20387;-74
2022/04/18 00:43:09;;;;;;;7.10;4.40;;;;;;;8.23;54.80;101930.09;4953300;28;20055;-74
2022/04/18 00:45:35;;;;;;;7.47;4.45;;;;;;;8.14;55.15;101916.50;4952185;28;20077;-74
2022/04/18 00:48:00;;;;;;;9.45;4.97;;;;;;;8.08;55.52;101922.03;4952820;29;20043;-74
2022/04/18 00:50:27;;;;;;;5.30;4.03;;;;;;;8.00;55.99;101913.66;4952821;28;20109;-73
2022/04/18 00:52:54;;;;;;;9.15;5.13;;;;;;;7.96;56.19;101914.72;4952483;28;20019;-74
2022/04/18 00:55:20;;;;;;;8.55;5.95;;;;;;;7.88;56.22;101911.63;4953210;29;20046;-74
2022/04/18 00:57:47;;;;;;;7.15;5.50;;;;;;;7.81;56.25;101923.28;4951407;29;20023;-73
2022/04/18 01:00:13;;;;;;;8.13;5.55;;;;;;;7.79;56.33;101912.88;4951953;28;20063;-74
2022/04/18 01:02:41;;;;;;;7.72;5.15;;;;;;;7.73;56.73;101917.56;4952579;28;20051;-74
2022/04/18 01:05:07;;;;;;;7.93;5.32;;;;;;;7.68;56.79;101919.53;4952381;28;20031;-74
2022/04/18 01:07:36;;;;;;;7.57;5.32;;;;;;;7.61;56.82;101916.34;4952837;28;20082;-74
2022/04/18 01:10:06;;;;;;;7.35;5.47;;;;;;;7.57;56.70;101908.66;4953517;28;20062;-73
2022/04/18 01:12:32;;;;;;;7.63;5.25;;;;;;;7.50;56.69;101908.94;4953468;29;20073;-74
2022/04/18 01:15:02;;;;;;;8.57;5.07;;;;;;;7.47;56.34;101909.06;4953097;29;20486;-74
2022/04/18 01:17:27;;;;;;;6.22;5.00;;;;;;;7.43;57.02;101909.28;4953283;29;20031;-74
2022/04/18 01:19:52;;;;;;;7.70;4.90;;;;;;;7.38;57.24;101903.41;4952148;29;20534;-73
2022/04/18 01:22:25;;;;;;;6.28;4.70;;;;;;;7.36;57.58;101906.09;4953411;28;20027;-73
2022/04/18 01:30:18;;;;;;;8.00;5.10;;;;;;;7.08;58.06;101903.78;4960168;28;20041;-75
2022/04/18 01:32:45;;;;;;;8.20;5.22;;;;;;;7.04;59.41;101906.59;4952645;28;20126;-75
2022/04/18 01:35:10;;;;;;;6.70;5.00;;;;;;;6.94;59.30;101886.97;4951639;28;20037;-75
2022/04/18 01:37:37;;;;;;;5.97;4.80;;;;;;;6.98;59.86;101914.72;4952395;28;20472;-75
2022/04/18 01:40:06;;;;;;;5.90;4.60;;;;;;;6.93;59.37;101906.22;4952085;28;20519;-75
2022/04/18 01:42:32;;;;;;;6.80;4.68;;;;;;;6.89;59.48;101911.56;4950819;29;20079;-75
2022/04/18 01:44:57;;;;;;;7.45;4.50;;;;;;;6.86;59.90;101901.25;4950130;29;20507;-75
2022/04/18 01:47:24;;;;;;;7.78;4.65;;;;;;;6.82;60.06;101904.91;4951097;28;20302;-75
2022/04/18 01:49:50;;;;;;;7.15;4.60;;;;;;;6.76;60.19;101899.91;4951498;28;20042;-75
2022/04/18 01:52:15;;;;;;;6.28;4.63;;;;;;;6.76;60.35;101899.91;4951020;28;20019;-75
2022/04/18 01:54:41;;;;;;;6.55;4.50;;;;;;;6.70;60.67;101901.91;4949977;29;20525;-75
2022/04/18 01:57:08;;;;;;;6.68;4.50;;;;;;;6.67;60.70;101905.50;4950297;29;20042;-75
2022/04/18 01:59:33;;;;;;;7.45;4.72;;;;;;;6.62;61.07;101897.00;4951902;29;20047;-75
2022/04/18 02:01:58;;;;;;;6.00;4.43;;;;;;;6.62;61.02;101904.00;4948258;29;20198;-75
2022/04/18 02:04:24;;;;;;;6.80;5.18;;;;;;;6.58;61.00;101901.50;4944903;29;20067;-75
2022/04/18 02:06:49;;;;;;;6.72;5.10;;;;;;;6.52;61.88;101895.69;4952036;28;20019;-75
2022/04/18 02:09:16;;;;;;;6.70;4.75;;;;;;;6.47;61.78;101897.63;4950529;28;20025;-75
2022/04/18 02:11:41;;;;;;;6.18;4.65;;;;;;;6.45;61.72;101900.31;4951305;29;20530;-75
2022/04/18 02:14:07;;;;;;;6.43;4.78;;;;;;;6.41;62.17;101898.72;4949171;29;20131;-73
2022/04/18 02:16:36;;;;;;;6.07;5.05;;;;;;;6.38;61.87;101898.81;4948972;29;20066;-75
2022/04/18 02:19:01;;;;;;;5.20;4.45;;;;;;;6.36;62.27;101897.19;4951861;28;20031;-75
2022/04/18 02:21:26;;;;;;;5.60;4.65;;;;;;;6.31;61.61;101888.69;4950556;29;20023;-75
2022/04/18 02:23:52;;;;;;;5.50;4.57;;;;;;;6.31;61.66;101888.69;4965721;28;20126;-73
2022/04/18 02:26:17;;;;;;;6.63;4.65;;;;;;;6.26;62.37;101887.09;4946529;28;20094;-75
2022/04/18 02:28:42;;;;;;;7.88;4.60;;;;;;;6.23;61.90;101887.22;4951925;29;20086;-75
2022/04/18 02:31:09;;;;;;;5.38;4.15;;;;;;;6.18;61.91;101881.31;4949392;29;20030;-75
2022/04/18 02:33:35;;;;;;;6.18;4.60;;;;;;;6.18;62.25;101886.56;4951865;29;20136;-75
2022/04/18 02:36:01;;;;;;;7.00;4.72;;;;;;;6.16;62.14;101883.16;4948379;28;20118;-75
2022/04/18 02:38:27;;;;;;;6.72;4.30;;;;;;;6.12;62.80;101876.34;4949544;29;20023;-75
2022/04/18 02:40:52;;;;;;;6.10;4.93;;;;;;;6.08;62.31;101877.38;4950121;29;20455;-75
2022/04/18 02:43:18;;;;;;;8.13;4.70;;;;;;;6.04;62.91;101877.56;4951090;29;20098;-75
2022/04/18 02:45:43;;;;;;;6.82;4.70;;;;;;;6.00;63.37;101868.97;4950407;29;20034;-75
2022/04/18 02:48:09;;;;;;;6.80;4.80;;;;;;;5.99;62.96;101869.88;4947358;28;20585;-75
2022/04/18 02:50:34;;;;;;;5.68;4.47;;;;;;;5.92;62.87;101856.19;4966007;28;20031;-75
2022/04/18 02:53:01;;;;;;;5.35;4.60;;;;;;;5.94;63.46;101866.59;4964697;28;20035;-76
2022/04/18 02:55:26;;;;;;;6.10;4.88;;;;;;;5.90;63.40;101860.63;4950534;29;20094;-75
2022/04/18 02:57:52;;;;;;;6.20;4.38;;;;;;;5.86;62.93;101855.56;4949734;29;20027;-75
2022/04/18 03:00:28;;;;;;;5.93;4.53;;;;;;;5.84;63.52;101860.84;4943717;29;20061;-75
2022/04/18 03:02:53;;;;;;;6.47;4.47;;;;;;;5.80;62.89;101847.97;4949015;28;20035;-75
2022/04/18 03:05:19;;;;;;;6.18;4.97;;;;;;;5.78;62.65;101850.63;4950075;29;20034;-75
2022/04/18 03:07:44;;;;;;;5.75;4.32;;;;;;;5.74;63.00;101848.19;4950455;29;20503;-75
2022/04/18 03:10:10;;;;;;;8.13;4.30;;;;;;;5.69;63.38;101848.38;4947591;29;20035;-75
2022/04/18 03:12:35;;;;;;;5.05;4.13;;;;;;;5.68;63.62;101845.81;4943075;29;20035;-75
2022/04/18 03:15:01;;;;;;;6.55;4.45;;;;;;;5.66;62.85;101838.03;4951061;28;20091;-75
2022/04/18 03:17:26;;;;;;;7.53;4.47;;;;;;;5.66;63.27;101848.50;4965013;28;20027;-75
2022/04/18 03:19:53;;;;;;;7.15;4.20;;;;;;;5.60;62.67;101844.34;4947007;29;20062;-75
2022/04/18 03:22:19;;;;;;;7.57;4.53;;;;;;;5.55;62.80;101843.66;4946994;29;20046;-75
2022/04/18 03:24:45;;;;;;;6.72;4.63;;;;;;;5.52;63.38;101830.72;4966016;28;20023;-75
2022/04/18 03:27:11;;;;;;;7.35;4.30;;;;;;;5.57;62.55;101841.81;4949888;28;20034;-75
2022/04/18 03:29:37;;;;;;;6.68;4.60;;;;;;;5.45;63.15;101826.63;4948363;29;20480;-75
2022/04/18 03:32:06;;;;;;;6.68;4.63;;;;;;;5.51;62.65;101847.28;4949309;29;20117;-75
2022/04/18 03:34:31;;;;;;;7.50;4.85;;;;;;;5.46;62.87;101838.78;4948763;29;20110;-75
2022/04/18 03:39:50;;;;;;;8.15;5.05;;;;;;;5.45;63.72;101851.88;4948218;29;20031;-75
2022/04/18 03:42:16;;;;;;;8.95;5.45;;;;;;;5.44;64.07;101851.03;4949892;29;20043;-75
2022/04/18 03:44:46;;;;;;;10.30;6.15;;;;;;;5.39;63.46;101852.97;4950604;29;20058;-75
2022/04/18 03:47:15;;;;;;;10.38;6.63;;;;;;;5.37;64.39;101849.56;4950075;28;20588;-75
2022/04/18 03:49:41;;;;;;;12.20;7.45;;;;;;;5.35;63.75;101843.53;4949349;28;20040;-75
2022/04/18 03:52:07;;;;;;;11.68;7.68;;;;;;;5.33;64.05;101853.19;4945260;29;20166;-75
2022/04/18 03:54:36;;;;;;;16.60;8.80;;;;;;;5.30;63.99;101848.06;4949306;29;20114;-75
2022/04/18 03:57:06;;;;;;;20.27;10.68;;;;;;;5.25;63.94;101848.25;4965096;28;20035;-75
2022/04/18 03:59:32;;;;;;;19.65;11.35;;;;;;;5.25;63.76;101850.00;4950227;28;20051;-75
2022/04/18 04:01:58;;;;;;;23.17;12.93;;;;;;;5.21;63.43;101848.41;4943296;28;20030;-75
2022/04/18 04:04:23;;;;;;;21.20;13.10;;;;;;;5.23;63.18;101851.81;4947581;29;20039;-75
2022/04/18 04:06:49;;;;;;;24.17;13.85;;;;;;;5.22;63.40;101842.28;4949862;29;20184;-75
2022/04/18 04:09:14;;;;;;;27.58;14.35;;;;;;;5.17;63.63;101838.97;4948967;29;20034;-76
2022/04/18 04:11:39;;;;;;;28.58;16.33;;;;;;;5.16;62.99;101845.09;4949447;29;20038;-76
2022/04/18 04:14:05;;;;;;;31.88;18.55;;;;;;;5.14;63.38;101846.91;4945769;28;20023;-75
2022/04/18 04:16:30;;;;;;;32.08;19.83;;;;;;;5.14;62.80;101844.28;4948320;29;20050;-76
2022/04/18 04:18:55;;;;;;;34.92;21.27;;;;;;;5.13;62.82;101845.19;4950112;29;20151;-75
2022/04/18 04:21:25;;;;;;;37.08;22.10;;;;;;;5.10;62.59;101834.88;4950195;29;20118;-75
2022/04/18 04:23:51;;;;;;;39.67;21.85;;;;;;;5.13;63.56;101839.97;4968158;28;20038;-75
2022/04/18 04:26:16;;;;;;;39.08;22.52;;;;;;;5.11;63.82;101836.56;4951998;29;20023;-75
2022/04/18 04:28:41;;;;;;;34.33;21.85;;;;;;;5.09;63.68;101833.16;4951987;28;20031;-75
2022/04/18 04:31:07;;;;;;;31.23;19.70;;;;;;;5.09;64.71;101841.00;4951669;29;20035;-75
2022/04/18 04:33:32;;;;;;;30.48;19.42;;;;;;;5.03;64.43;101840.31;4954114;28;20034;-75
2022/04/18 04:35:58;;;;;;;29.23;20.42;;;;;;;5.03;64.37;101845.53;4951730;29;20483;-75
2022/04/18 04:38:28;;;;;;;37.10;21.52;;;;;;;4.98;64.08;101850.06;4953646;29;20379;-74
2022/04/18 04:40:55;;;;;;;37.63;21.38;;;;;;;4.98;64.49;101842.22;4953580;28;20047;-75
2022/04/18 04:43:20;;;;;;;31.40;19.63;;;;;;;4.96;65.63;101844.03;4952853;28;20035;-74
2022/04/18 04:45:46;;;;;;;32.97;19.73;;;;;;;4.95;65.17;101844.94;4951773;29;20050;-74
2022/04/18 04:48:12;;;;;;;33.67;19.98;;;;;;;4.95;64.76;101846.69;4952514;29;20490;-74
2022/04/18 04:50:39;;;;;;;31.65;19.88;;;;;;;4.93;64.87;101844.16;4953631;29;20031;-74
2022/04/18 04:53:05;;;;;;;31.33;20.55;;;;;;;4.94;65.75;101840.63;4951698;29;20050;-74
2022/04/18 04:55:35;;;;;;;29.80;18.75;;;;;;;4.96;65.11;101841.44;4953085;29;20452;-74
2022/04/18 04:58:02;;;;;;;27.90;18.42;;;;;;;5.00;65.27;101845.63;4967828;28;20030;-74
2022/04/18 05:00:27;;;;;;;28.48;17.15;;;;;;;5.02;64.67;101856.88;4953903;29;20412;-74
2022/04/18 05:02:55;;;;;;;20.83;12.93;;;;;;;5.06;63.39;101854.16;4949714;29;20039;-74
2022/04/18 05:05:21;;;;;;;20.60;12.35;;;;;;;5.10;61.96;101850.53;4983049;28;20034;-74
2022/04/18 05:07:46;;;;;;;17.77;11.38;;;;;;;5.14;62.39;101844.28;4967637;28;20035;-74
2022/04/18 05:10:11;;;;;;;17.75;10.90;;;;;;;5.19;62.94;101845.81;4951042;29;20123;-74
2022/04/18 05:12:37;;;;;;;12.90;9.48;;;;;;;5.25;61.10;101852.63;4951671;29;20031;-74
2022/04/18 05:15:05;;;;;;;13.45;8.55;;;;;;;5.31;60.83;101849.78;4951708;29;20027;-74
2022/04/18 05:17:31;;;;;;;12.15;8.15;;;;;;;5.36;60.97;101847.84;4952820;28;20031;-74
2022/04/18 05:19:56;;;;;;;10.98;7.32;;;;;;;5.41;61.40;101845.91;4950386;29;20109;-74
2022/04/18 05:22:22;;;;;;;10.50;6.88;;;;;;;5.47;61.27;101855.28;4952610;28;20024;-74
2022/04/18 05:24:49;;;;;;;10.35;6.20;;;;;;;5.51;60.49;101846.44;4953188;29;20063;-74
2022/04/18 05:27:15;;;;;;;7.57;5.45;;;;;;;5.56;60.11;101845.34;4950884;28;20360;-74
2022/04/18 05:29:42;;;;;;;9.50;5.90;;;;;;;5.63;59.99;101851.22;4950614;29;20039;-74
2022/04/18 05:32:07;;;;;;;7.88;5.03;;;;;;;5.68;59.54;101848.44;4952729;29;20483;-73
2022/04/18 05:34:37;;;;;;;8.15;5.00;;;;;;;5.74;59.57;101853.41;4953152;29;20023;-75
2022/04/18 05:37:07;;;;;;;7.30;4.80;;;;;;;5.83;59.89;101858.28;4952774;28;20026;-76
2022/04/18 05:39:32;;;;;;;6.68;4.47;;;;;;;5.90;59.34;101851.94;4953048;28;20057;-76
2022/04/18 05:41:57;;;;;;;6.65;4.72;;;;;;;5.94;58.43;101866.59;4952779;29;20039;-77
2022/04/18 05:44:23;;;;;;;5.53;4.40;;;;;;;6.05;59.15;101858.38;4952279;28;20373;-77
2022/04/18 05:46:48;;;;;;;6.47;4.30;;;;;;;6.13;58.37;101857.16;4949995;29;20046;-77
2022/04/18 05:49:14;;;;;;;6.65;4.45;;;;;;;6.22;57.99;101859.38;4952537;28;20280;-77
2022/04/18 05:51:39;;;;;;;5.80;4.30;;;;;;;6.29;57.62;101863.47;4951404;29;20035;-77
2022/04/18 05:54:06;;;;;;;6.35;4.28;;;;;;;6.38;58.12;101864.00;4950510;29;20066;-75
2022/04/18 05:56:31;;;;;;;6.60;4.50;;;;;;;6.43;57.33;101862.06;4907440;29;20542;-75
2022/04/18 05:58:57;;;;;;;6.53;4.35;;;;;;;6.54;57.13;101867.72;4939876;29;20039;-77
2022/04/18 06:01:22;;;;;;;5.93;4.25;;;;;;;6.64;56.84;101863.81;4950593;29;20086;-77
2022/04/18 06:03:48;;;;;;;7.82;4.00;;;;;;;6.73;56.09;101863.41;4951095;29;20490;-75
2022/04/18 06:06:16;;;;;;;5.85;4.18;;;;;;;6.83;56.03;101859.53;4951118;28;20042;-75
2022/04/18 06:08:41;;;;;;;5.70;4.13;;;;;;;6.94;55.34;101866.91;4948527;29;20039;-75
2022/04/18 06:11:07;;;;;;;5.80;3.80;;;;;;;7.02;55.49;101864.81;4951529;28;20188;-75
2022/04/18 06:13:33;;;;;;;6.45;4.25;;;;;;;7.12;55.32;101865.25;4951746;28;20086;-75
2022/04/18 06:16:02;;;;;;;7.15;4.88;;;;;;;7.25;55.22;101865.59;4950821;28;20403;-75
2022/04/18 06:18:28;;;;;;;6.57;4.50;;;;;;;7.33;55.39;101861.72;4950581;28;20459;-75
2022/04/18 06:20:54;;;;;;;5.68;4.70;;;;;;;7.41;54.90;101856.13;4951973;28;20027;-75
2022/04/18 06:23:19;;;;;;;6.70;4.45;;;;;;;7.50;53.51;101853.94;4950493;29;20105;-75
2022/04/18 06:25:45;;;;;;;9.57;4.63;;;;;;;7.68;54.09;101859.28;4951355;29;20163;-74
2022/04/18 06:28:12;;;;;;;6.13;4.30;;;;;;;7.79;53.62;101867.50;4952060;29;20039;-75
2022/04/18 06:30:38;;;;;;;5.60;3.80;;;;;;;7.91;52.72;101861.69;4950913;28;20577;-75
2022/04/18 06:33:15;;;;;;;4.90;3.80;;;;;;;8.03;52.86;101863.75;4950785;29;20067;-73
2022/04/18 06:35:42;;;;;;;5.55;3.95;;;;;;;8.20;50.87;101856.84;4949762;29;20062;-74
2022/04/18 06:38:08;;;;;;;5.13;3.58;;;;;;;8.34;51.85;101862.31;4950239;28;20027;-73
2022/04/18 06:40:34;;;;;;;5.47;3.90;;;;;;;8.41;51.71;101851.47;4952390;28;20035;-73
2022/04/18 06:42:59;;;;;;;4.65;3.38;;;;;;;8.56;51.68;101865.59;4951389;29;20503;-74
2022/04/18 06:45:25;;;;;;;5.95;3.53;;;;;;;8.69;50.68;101861.44;4952110;29;20027;-74
2022/04/18 06:47:52;;;;;;;5.22;3.50;;;;;;;8.81;50.76;101859.16;4982190;28;20067;-74
2022/04/18 06:50:18;;;;;;;5.40;3.60;;;;;;;8.94;50.89;101865.47;4949812;29;20027;-74
2022/04/18 06:52:49;;;;;;;7.43;3.33;;;;;;;9.07;50.24;101867.38;4946995;29;20510;-74
2022/04/18 06:55:15;;;;;;;4.68;2.83;;;;;;;9.17;49.33;101856.38;4966615;28;20652;-76
2022/04/18 06:57:40;;;;;;;5.15;3.00;;;;;;;9.30;49.66;101865.34;4951402;28;20106;-76
2022/04/18 07:00:06;;;;;;;4.70;3.28;;;;;;;9.43;48.91;101853.25;4951293;28;20075;-76
2022/04/18 07:02:32;;;;;;;4.53;2.85;;;;;;;9.57;47.75;101852.50;4951660;29;20027;-76
2022/04/18 07:04:58;;;;;;;5.20;3.20;;;;;;;9.69;48.38;101854.50;4949241;29;20038;-76
2022/04/18 07:07:23;;;;;;;5.60;2.90;;;;;;;9.83;48.27;101851.13;4953317;28;20401;-76
2022/04/18 07:09:49;;;;;;;4.47;2.67;;;;;;;9.94;46.97;101852.22;4937014;29;20051;-76
2022/04/18 07:12:14;;;;;;;3.65;2.50;;;;;;;10.07;47.41;101852.41;4950544;29;20027;-76
2022/04/18 07:14:41;;;;;;;3.90;2.90;;;;;;;10.22;46.16;101854.19;4950121;29;20015;-76
2022/04/18 07:17:07;;;;;;;5.13;2.90;;;;;;;10.35;45.03;101844.66;4949934;29;20110;-76
2022/04/18 07:19:33;;;;;;;3.38;2.70;;;;;;;10.52;45.09;101854.25;4949852;29;20515;-76
2022/04/18 07:21:58;;;;;;;5.03;2.60;;;;;;;10.67;45.89;101849.88;4949925;29;20114;-76
2022/04/18 07:24:24;;;;;;;5.20;2.95;;;;;;;10.78;45.07;101847.44;4951329;29;20110;-76
2022/04/18 07:26:49;;;;;;;4.70;2.60;;;;;;;10.95;45.62;101838.56;4938929;28;20498;-75
2022/04/18 07:29:15;;;;;;;4.35;2.80;;;;;;;11.08;45.60;101838.66;4934532;29;20023;-74
2022/04/18 07:31:41;;;;;;;3.40;2.58;;;;;;;11.19;45.10;101836.22;4950818;29;20438;-74
2022/04/18 07:34:06;;;;;;;4.18;2.28;;;;;;;11.30;44.15;101836.44;4950461;29;20035;-74
2022/04/18 07:36:32;;;;;;;3.55;2.70;;;;;;;11.47;44.63;101836.25;4950665;29;20038;-74
2022/04/18 07:38:57;;;;;;;4.22;2.40;;;;;;;11.58;44.15;101828.50;4951525;29;20102;-74
2022/04/18 07:41:24;;;;;;;6.65;2.30;;;;;;;11.72;43.38;101827.66;4949502;29;20330;-74
2022/04/18 07:43:51;;;;;;;4.30;2.80;;;;;;;11.89;43.32;101830.09;4951587;28;20023;-74
2022/04/18 07:46:17;;;;;;;3.92;2.40;;;;;;;12.05;42.08;101829.97;4950774;29;20023;-74
2022/04/18 07:48:44;;;;;;;3.70;2.53;;;;;;;12.19;41.54;101826.44;4951367;28;20035;-74
2022/04/18 07:53:54;;;;;;;4.55;2.45;;;;;;;12.52;40.49;101821.59;4954954;29;20162;-74
2022/04/18 07:56:20;;;;;;;3.28;2.30;;;;;;;12.68;40.12;101825.84;4969930;28;20498;-74
2022/04/18 07:58:46;;;;;;;4.13;2.25;;;;;;;12.83;39.82;101824.81;4955447;28;20050;-74
2022/04/18 08:01:12;;;;;;;4.00;2.30;;;;;;;12.97;38.76;101816.78;4937221;29;20033;-74
2022/04/18 08:03:38;;;;;;;3.20;2.60;;;;;;;13.11;38.80;101816.69;4953872;29;20395;-74
2022/04/18 08:06:06;;;;;;;3.63;2.42;;;;;;;13.25;40.14;101812.28;4953176;29;20034;-74
2022/04/18 08:08:32;;;;;;;4.05;2.60;;;;;;;13.44;40.49;101817.97;4952774;29;20113;-74
2022/04/18 08:10:58;;;;;;;4.55;2.60;;;;;;;13.55;40.07;101811.91;4954505;28;20102;-74
2022/04/18 08:13:23;;;;;;;3.50;2.50;;;;;;;13.68;39.46;101818.03;4952957;29;20311;-74
2022/04/18 08:15:48;;;;;;;4.60;2.83;;;;;;;13.78;39.29;101819.06;4952500;29;20035;-74
2022/04/18 08:18:14;;;;;;;3.35;2.65;;;;;;;13.91;39.68;101819.84;4953211;29;20027;-74
2022/04/18 08:20:39;;;;;;;4.07;2.90;;;;;;;14.02;38.41;101821.75;4949803;29;20024;-74
2022/04/18 08:23:05;;;;;;;3.42;2.67;;;;;;;14.08;37.65;101816.00;4951660;29;20109;-74
2022/04/18 08:25:30;;;;;;;4.63;2.97;;;;;;;14.24;38.03;101821.84;4953245;29;20023;-74
2022/04/18 08:27:55;;;;;;;3.22;2.65;;;;;;;14.29;37.04;101822.34;4949736;29;20027;-74
2022/04/18 08:30:21;;;;;;;3.03;2.53;;;;;;;14.40;37.17;101826.84;4933134;29;20028;-74
2022/04/18 08:32:46;;;;;;;4.50;2.60;;;;;;;14.49;37.38;101825.38;4933929;29;20043;-74
2022/04/18 08:35:11;;;;;;;4.88;2.63;;;;;;;14.59;37.59;101821.91;4935664;29;20381;-74
2022/04/18 08:37:37;;;;;;;4.07;2.55;;;;;;;14.63;35.52;101822.50;4935525;29;20038;-74
2022/04/18 08:40:05;;;;;;;3.70;2.10;;;;;;;14.74;35.24;101819.88;4950429;29;20028;-74
2022/04/18 08:42:36;;;;;;;3.00;2.15;;;;;;;14.80;34.21;101823.88;4935144;29;20040;-75
2022/04/18 08:45:10;;;;;;;3.42;2.63;;;;;;;14.85;34.63;101819.09;4961731;28;20158;-74
2022/04/18 08:53:10;;;;;;;4.55;2.42;;;;;;;15.16;34.97;101814.91;4954857;29;20098;-73
2022/04/18 08:55:36;;;;;;;4.22;2.30;;;;;;;15.22;35.00;101820.59;4955106;28;20038;-73
2022/04/18 08:58:01;;;;;;;2.97;2.20;;;;;;;15.27;34.40;101817.59;4954257;28;20098;-73
2022/04/18 09:00:27;;;;;;;3.08;2.42;;;;;;;15.31;33.72;101813.72;4950098;28;20055;-73
2022/04/18 09:02:53;;;;;;;5.57;2.50;;;;;;;15.44;34.95;101817.09;4948934;29;20145;-74
2022/04/18 09:05:18;;;;;;;3.65;2.50;;;;;;;15.55;35.30;101810.94;4942787;29;20035;-74
2022/04/18 09:07:56;;;;;;;4.90;2.70;;;;;;;15.64;34.86;101816.41;4952998;29;20387;-73
2022/04/18 09:10:24;;;;;;;3.50;2.08;;;;;;;15.74;34.79;101810.34;4954507;28;20027;-76
2022/04/18 09:12:50;;;;;;;4.00;2.40;;;;;;;15.81;34.30;101806.22;4954177;28;20034;-76
2022/04/18 09:15:29;;;;;;;4.20;2.55;;;;;;;15.85;34.74;101810.31;4953161;29;20023;-73
2022/04/18 09:18:06;;;;;;;5.55;2.75;;;;;;;16.03;36.56;101805.34;4947446;28;20151;-73
2022/04/18 09:20:40;;;;;;;3.60;2.60;;;;;;;16.05;33.81;101809.56;4944907;29;20430;-74
2022/04/18 09:23:05;;;;;;;3.67;2.45;;;;;;;16.10;33.62;101801.22;4953028;28;20027;-74
2022/04/18 09:25:37;;;;;;;6.25;2.80;;;;;;;16.05;33.33;101809.56;4953213;28;20046;-73
2022/04/18 09:28:11;;;;;;;4.22;3.05;;;;;;;16.08;34.36;101811.97;4953331;28;20625;-73
2022/04/18 09:30:37;;;;;;;4.60;2.50;;;;;;;16.14;32.81;101808.81;4953754;28;20410;-74
2022/04/18 09:33:06;;;;;;;3.88;2.80;;;;;;;16.34;34.92;101808.97;4951541;29;20019;-73
2022/04/18 09:35:31;;;;;;;4.68;2.85;;;;;;;16.32;33.52;101802.94;4953835;28;20031;-74
2022/04/18 09:38:02;;;;;;;4.28;2.70;;;;;;;16.43;33.90;101802.91;4953187;29;20038;-73
2022/04/18 09:40:30;;;;;;;5.45;2.75;;;;;;;16.45;32.74;101793.84;4952589;28;20078;-73
2022/04/18 09:42:56;;;;;;;4.50;2.80;;;;;;;16.54;32.80;101800.19;4953233;29;20031;-73
2022/04/18 09:45:22;;;;;;;4.22;2.85;;;;;;;16.66;34.68;101793.03;4952853;28;20036;-76
2022/04/18 09:47:56;;;;;;;7.20;2.90;;;;;;;16.77;34.72;101799.09;4952491;28;20085;-74
2022/04/18 09:53:16;;;;;;;5.03;2.85;;;;;;;17.03;33.79;101780.09;4952916;29;20059;-73
2022/04/18 09:55:47;;;;;;;3.05;2.47;;;;;;;17.03;32.13;101780.09;4938029;29;20019;-73
2022/04/18 09:58:13;;;;;;;3.50;2.80;;;;;;;17.08;30.58;101777.88;4953358;28;20035;-74
2022/04/18 10:00:40;;;;;;;5.20;2.83;;;;;;;17.08;30.50;101784.03;4967999;28;20075;-75
2022/04/18 10:03:06;;;;;;;4.13;2.75;;;;;;;17.20;31.23;101777.63;4953168;28;20090;-74
2022/04/18 10:05:32;;;;;;;2.97;2.42;;;;;;;17.35;31.71;101778.13;4953429;29;20039;-73
2022/04/18 10:08:03;;;;;;;4.18;2.50;;;;;;;17.52;31.48;101774.81;4951119;29;20023;-74
2022/04/18 10:10:31;;;;;;;4.78;2.70;;;;;;;17.53;29.63;101773.00;4952503;29;20105;-74
2022/04/18 10:12:57;;;;;;;4.05;2.80;;;;;;;17.66;28.95;101767.44;4952059;28;20042;-73
2022/04/18 10:15:23;;;;;;;3.40;2.90;;;;;;;17.67;29.57;101764.69;4951254;29;20031;-74
2022/04/18 10:17:50;;;;;;;3.63;2.90;;;;;;;17.77;30.71;101770.03;4952785;29;20034;-74
2022/04/18 10:20:46;;;;;;;6.35;2.90;;;;;;;18.01;31.70;101762.50;4967039;28;20387;-73
2022/04/18 10:23:39;;;;;;;3.42;2.80;;;;;;;18.06;31.09;101754.09;4951888;29;20039;-76
2022/04/18 10:26:26;;;;;;;4.15;3.10;;;;;;;18.23;30.83;101755.19;4970594;28;20031;-73
2022/04/18 10:28:53;;;;;;;3.78;3.03;;;;;;;18.42;29.74;101747.19;4949815;29;20110;-73
2022/04/18 10:31:25;;;;;;;4.07;3.08;;;;;;;18.58;30.63;101749.25;4951817;28;20031;-74
2022/04/18 10:33:51;;;;;;;6.18;3.30;;;;;;;18.61;29.21;101747.16;4952196;28;20023;-74
2022/04/18 10:36:31;;;;;;;6.75;3.40;;;;;;;18.56;29.08;101741.41;4950146;29;20030;-73
2022/04/18 10:39:01;;;;;;;6.53;3.08;;;;;;;18.54;28.44;101743.38;4950740;29;20023;-73
2022/04/18 10:41:38;;;;;;;6.05;3.10;;;;;;;18.71;30.37;101733.81;4950501;29;20090;-73
2022/04/18 10:44:08;;;;;;;6.13;2.90;;;;;;;18.71;28.52;101733.81;4949407;29;20082;-74
2022/04/18 10:46:36;;;;;;;7.15;3.22;;;;;;;18.94;29.40;101735.16;4952333;29;20063;-74
2022/04/18 10:49:14;;;;;;;5.25;3.22;;;;;;;19.15;30.01;101734.09;4951352;28;20027;-74
2022/04/18 10:51:41;;;;;;;4.28;3.00;;;;;;;19.28;29.74;101731.94;4952811;29;20085;-74
2022/04/18 10:54:09;;;;;;;5.50;3.05;;;;;;;19.33;28.89;101730.50;4952476;29;20019;-74
2022/04/18 10:57:05;;;;;;;4.25;3.15;;;;;;;19.42;28.35;101734.09;4951402;29;20510;-74
2022/04/18 10:59:36;;;;;;;4.70;3.25;;;;;;;19.49;27.64;101729.00;4950743;29;20139;-74
2022/04/18 11:02:04;;;;;;;5.00;3.38;;;;;;;19.56;27.79;101730.94;4953966;29;20058;-75
2022/04/18 11:04:43;;;;;;;4.63;3.28;;;;;;;19.65;28.58;101719.38;4920163;29;20034;-73
2022/04/18 11:07:10;;;;;;;4.97;3.00;;;;;;;19.75;28.15;101724.66;4950797;29;20027;-74
2022/04/18 11:09:37;;;;;;;3.75;2.60;;;;;;;19.77;27.53;101727.16;4952323;29;20106;-76
2022/04/18 11:12:10;;;;;;;3.00;2.70;;;;;;;19.81;27.12;101718.69;4951402;29;20090;-74
2022/04/18 11:14:38;;;;;;;5.38;3.10;;;;;;;19.72;25.34;101714.28;4951156;28;20459;-74
2022/04/18 11:17:06;;;;;;;4.20;3.30;;;;;;;19.57;25.53;101715.75;4951312;28;20030;-74
2022/04/18 11:19:36;;;;;;;4.32;3.13;;;;;;;19.68;27.45;101713.75;4953297;29;20027;-74
2022/04/18 11:22:04;;;;;;;4.05;3.20;;;;;;;19.82;27.04;101709.69;4954092;29;20283;-74
2022/04/18 11:24:38;;;;;;;3.65;3.05;;;;;;;20.01;28.14;101712.22;4952342;28;20032;-74
2022/04/18 11:27:09;;;;;;;4.55;3.10;;;;;;;20.10;27.44;101706.94;4954181;29;20034;-74
2022/04/18 11:29:39;;;;;;;3.83;2.90;;;;;;;20.22;27.17;101716.38;4952606;28;20019;-74
2022/04/18 11:32:06;;;;;;;4.45;3.13;;;;;;;20.38;27.39;101700.44;4952042;29;20482;-75
2022/04/18 11:34:32;;;;;;;4.47;2.92;;;;;;;20.15;25.10;101699.28;4949298;29;20035;-74
2022/04/18 11:37:01;;;;;;;4.13;3.42;;;;;;;20.07;25.58;101696.56;4951210;29;20098;-74
2022/04/18 11:39:48;;;;;;;4.28;3.33;;;;;;;20.19;26.90;101697.97;4950516;29;20023;-74
2022/04/18 11:42:16;;;;;;;4.18;3.00;;;;;;;20.26;26.06;101696.38;4949822;29;20038;-74
2022/04/18 11:44:43;;;;;;;4.22;2.92;;;;;;;20.31;26.26;101694.06;4951037;29;20391;-74
2022/04/18 11:47:10;;;;;;;4.82;3.30;;;;;;;20.41;26.72;101694.81;4950599;28;20028;-73
2022/04/18 11:49:37;;;;;;;3.80;3.08;;;;;;;20.64;27.10;101690.63;4951338;28;20019;-73